sensor_id;sensor_type;location;lat;lon;timestamp;pressure;altitude;pressure_sealevel;temperature;humidity
6345;BME280;3205;42.666;23.264;2023-05-11T00:00:46;94526.13;;;10.15;nan
6345;BME280;3205;42.666;23.264;2023-05-11T00:03:12;94532.78;;;10.01;nan
6345;BME280;3205;42.666;23.264;2023-05-11T00:05:38;94526.53;;;10.05;nan
6345;BME280;3205;42.666;23.264;2023-05-11T00:08:05;94524.84;;;10.01;nan
6345;BME280;3205;42.666;23.264;2023-05-11T00:10:31;94521.44;;;10.00;nan
6345;BME280;3205;42.666;23.264;2023-05-11T00:12:57;94524.97;;;10.04;nan
6345;BME280;3205;42.666;23.264;2023-05-11T00:15:24;94524.59;;;10.14;nan
6345;BME280;3205;42.666;23.264;2023-05-11T00:17:50;94534.72;;;9.92;nan
6345;BME280;3205;42.666;23.264;2023-05-11T00:20:16;94527.22;;;9.94;nan
6345;BME280;3205;42.666;23.264;2023-05-11T00:22:42;94525.44;;;10.06;nan
6345;BME280;3205;42.666;23.264;2023-05-11T00:25:08;94531.09;;;9.96;nan
6345;BME280;3205;42.666;23.264;2023-05-11T00:27:35;94525.69;;;9.93;nan
6345;BME280;3205;42.666;23.264;2023-05-11T00:30:01;94521.94;;;9.94;nan
6345;BME280;3205;42.666;23.264;2023-05-11T00:32:28;94532.00;;;10.00;nan
6345;BME280;3205;42.666;23.264;2023-05-11T00:34:54;94537.78;;;9.94;nan
6345;BME280;3205;42.666;23.264;2023-05-11T00:37:20;94537.66;;;9.90;nan
6345;BME280;3205;42.666;23.264;2023-05-11T00:39:46;94537.66;;;9.90;nan
6345;BME280;3205;42.666;23.264;2023-05-11T00:42:13;94533.38;;;9.86;nan
6345;BME280;3205;42.666;23.264;2023-05-11T00:44:39;94525.63;;;9.81;nan
6345;BME280;3205;42.666;23.264;2023-05-11T00:47:06;94529.13;;;9.73;nan
6345;BME280;3205;42.666;23.264;2023-05-11T00:49:32;94545.84;;;9.77;nan
6345;BME280;3205;42.666;23.264;2023-05-11T00:51:58;94537.56;;;9.66;nan
6345;BME280;3205;42.666;23.264;2023-05-11T00:54:27;94544.75;;;9.78;nan
6345;BME280;3205;42.666;23.264;2023-05-11T00:56:53;94545.13;;;9.68;nan
6345;BME280;3205;42.666;23.264;2023-05-11T00:59:19;94534.59;;;9.68;nan
6345;BME280;3205;42.666;23.264;2023-05-11T01:01:46;94540.94;;;9.67;nan
6345;BME280;3205;42.666;23.264;2023-05-11T01:04:12;94544.88;;;9.61;nan
6345;BME280;3205;42.666;23.264;2023-05-11T01:06:44;94534.22;;;9.78;nan
6345;BME280;3205;42.666;23.264;2023-05-11T01:09:23;94548.75;;;9.84;nan
6345;BME280;3205;42.666;23.264;2023-05-11T01:11:57;94536.19;;;9.81;nan
6345;BME280;3205;42.666;23.264;2023-05-11T01:14:28;94541.88;;;9.71;nan
6345;BME280;3205;42.666;23.264;2023-05-11T01:17:04;94538.72;;;9.57;nan
6345;BME280;3205;42.666;23.264;2023-05-11T01:19:39;94542.91;;;9.58;nan
6345;BME280;3205;42.666;23.264;2023-05-11T01:22:14;94531.09;;;9.76;nan
6345;BME280;3205;42.666;23.264;2023-05-11T01:24:58;94535.66;;;9.67;nan
6345;BME280;3205;42.666;23.264;2023-05-11T01:27:47;94529.19;;;9.64;nan
6345;BME280;3205;42.666;23.264;2023-05-11T01:30:25;94543.66;;;9.58;nan
6345;BME280;3205;42.666;23.264;2023-05-11T01:32:53;94531.25;;;9.59;nan
6345;BME280;3205;42.666;23.264;2023-05-11T01:35:23;94529.00;;;9.69;nan
6345;BME280;3205;42.666;23.264;2023-05-11T01:37:53;94534.63;;;9.80;nan
6345;BME280;3205;42.666;23.264;2023-05-11T01:40:22;94540.84;;;9.84;nan
6345;BME280;3205;42.666;23.264;2023-05-11T01:42:52;94531.81;;;9.85;nan
6345;BME280;3205;42.666;23.264;2023-05-11T01:45:19;94534.59;;;9.88;nan
6345;BME280;3205;42.666;23.264;2023-05-11T01:47:49;94532.00;;;10.00;nan
6345;BME280;3205;42.666;23.264;2023-05-11T01:50:16;94537.78;;;9.94;nan
6345;BME280;3205;42.666;23.264;2023-05-11T01:52:47;94544.13;;;10.01;nan
6345;BME280;3205;42.666;23.264;2023-05-11T01:55:16;94544.13;;;10.01;nan
6345;BME280;3205;42.666;23.264;2023-05-11T01:57:44;94538.91;;;9.93;nan
6345;BME280;3205;42.666;23.264;2023-05-11T02:00:15;94543.03;;;10.02;nan
6345;BME280;3205;42.666;23.264;2023-05-11T02:02:44;94551.78;;;9.94;nan
6345;BME280;3205;42.666;23.264;2023-05-11T02:05:14;94538.91;;;9.93;nan
6345;BME280;3205;42.666;23.264;2023-05-11T02:07:44;94540.41;;;10.02;nan
6345;BME280;3205;42.666;23.264;2023-05-11T02:10:14;94535.56;;;9.84;nan
6345;BME280;3205;42.666;23.264;2023-05-11T02:12:42;94533.22;;;10.03;nan
6345;BME280;3205;42.666;23.264;2023-05-11T02:15:09;94538.19;;;10.04;nan
6345;BME280;3205;42.666;23.264;2023-05-11T02:17:37;94538.38;;;9.99;nan
6345;BME280;3205;42.666;23.264;2023-05-11T02:20:05;94536.69;;;9.95;nan
6345;BME280;3205;42.666;23.264;2023-05-11T02:22:34;94538.00;;;10.09;nan
6345;BME280;3205;42.666;23.264;2023-05-11T02:25:01;94533.03;;;10.08;nan
6345;BME280;3205;42.666;23.264;2023-05-11T02:27:28;94539.03;;;9.96;nan
6345;BME280;3205;42.666;23.264;2023-05-11T02:29:54;94544.34;;;9.88;nan
6345;BME280;3205;42.666;23.264;2023-05-11T02:32:21;94536.38;;;9.96;nan
6345;BME280;3205;42.666;23.264;2023-05-11T02:34:55;94537.03;;;9.93;nan
6345;BME280;3205;42.666;23.264;2023-05-11T02:37:24;94537.06;;;9.73;nan
6345;BME280;3205;42.666;23.264;2023-05-11T02:39:57;94537.56;;;9.66;nan
6345;BME280;3205;42.666;23.264;2023-05-11T02:42:25;94542.19;;;9.69;nan
6345;BME280;3205;42.666;23.264;2023-05-11T02:44:56;94546.56;;;9.65;nan
6345;BME280;3205;42.666;23.264;2023-05-11T02:47:26;94551.00;;;9.53;nan
6345;BME280;3205;42.666;23.264;2023-05-11T02:49:54;94543.19;;;9.36;nan
6345;BME280;3205;42.666;23.264;2023-05-11T02:52:23;94536.91;;;9.49;nan
6345;BME280;3205;42.666;23.264;2023-05-11T02:54:52;94542.19;;;9.49;nan
6345;BME280;3205;42.666;23.264;2023-05-11T02:57:19;94547.44;;;9.29;nan
6345;BME280;3205;42.666;23.264;2023-05-11T02:59:45;94544.69;;;9.25;nan
6345;BME280;3205;42.666;23.264;2023-05-11T03:02:12;94547.13;;;9.30;nan
6345;BME280;3205;42.666;23.264;2023-05-11T03:04:38;94538.25;;;9.35;nan
6345;BME280;3205;42.666;23.264;2023-05-11T03:07:04;94548.16;;;9.38;nan
6345;BME280;3205;42.666;23.264;2023-05-11T03:09:30;94537.59;;;9.38;nan
6345;BME280;3205;42.666;23.264;2023-05-11T03:11:58;94535.34;;;9.28;nan
6345;BME280;3205;42.666;23.264;2023-05-11T03:14:25;94538.25;;;9.35;nan
6345;BME280;3205;42.666;23.264;2023-05-11T03:16:52;94550.28;;;9.44;nan
6345;BME280;3205;42.666;23.264;2023-05-11T03:19:21;94549.75;;;9.30;nan
6345;BME280;3205;42.666;23.264;2023-05-11T03:21:49;94548.94;;;9.38;nan
6345;BME280;3205;42.666;23.264;2023-05-11T03:24:16;94550.84;;;9.50;nan
6345;BME280;3205;42.666;23.264;2023-05-11T03:26:43;94548.88;;;9.47;nan
6345;BME280;3205;42.666;23.264;2023-05-11T03:29:12;94553.44;;;9.38;nan
6345;BME280;3205;42.666;23.264;2023-05-11T03:31:40;94546.03;;;9.31;nan
6345;BME280;3205;42.666;23.264;2023-05-11T03:34:06;94552.16;;;9.44;nan
6345;BME280;3205;42.666;23.264;2023-05-11T03:36:33;94540.59;;;9.07;nan
6345;BME280;3205;42.666;23.264;2023-05-11T03:39:00;94551.66;;;9.21;nan
6345;BME280;3205;42.666;23.264;2023-05-11T03:41:29;94552.88;;;9.32;nan
6345;BME280;3205;42.666;23.264;2023-05-11T03:43:59;94550.34;;;9.36;nan
6345;BME280;3205;42.666;23.264;2023-05-11T03:46:28;94558.78;;;9.50;nan
6345;BME280;3205;42.666;23.264;2023-05-11T03:48:55;94556.66;;;9.43;nan
6345;BME280;3205;42.666;23.264;2023-05-11T03:51:21;94559.22;;;9.52;nan
6345;BME280;3205;42.666;23.264;2023-05-11T03:53:48;94560.03;;;9.52;nan
6345;BME280;3205;42.666;23.264;2023-05-11T03:56:14;94562.84;;;9.47;nan
6345;BME280;3205;42.666;23.264;2023-05-11T03:58:40;94561.81;;;9.40;nan
6345;BME280;3205;42.666;23.264;2023-05-11T04:01:07;94565.34;;;9.44;nan
6345;BME280;3205;42.666;23.264;2023-05-11T04:03:34;94557.88;;;9.46;nan
6345;BME280;3205;42.666;23.264;2023-05-11T04:06:01;94564.84;;;9.21;nan
6345;BME280;3205;42.666;23.264;2023-05-11T04:08:27;94564.41;;;9.19;nan
6345;BME280;3205;42.666;23.264;2023-05-11T04:10:54;94562.41;;;9.16;nan
6345;BME280;3205;42.666;23.264;2023-05-11T04:13:20;94571.34;;;9.24;nan
6345;BME280;3205;42.666;23.264;2023-05-11T04:15:46;94579.84;;;9.00;nan
6345;BME280;3205;42.666;23.264;2023-05-11T04:18:12;94582.75;;;9.07;nan
6345;BME280;3205;42.666;23.264;2023-05-11T04:20:39;94571.13;;;9.08;nan
6345;BME280;3205;42.666;23.264;2023-05-11T04:23:05;94560.50;;;9.25;nan
6345;BME280;3205;42.666;23.264;2023-05-11T04:25:31;94576.81;;;9.19;nan
6345;BME280;3205;42.666;23.264;2023-05-11T04:27:57;94580.59;;;9.09;nan
6345;BME280;3205;42.666;23.264;2023-05-11T04:30:24;94566.19;;;9.07;nan
6345;BME280;3205;42.666;23.264;2023-05-11T04:32:50;94568.78;;;9.15;nan
6345;BME280;3205;42.666;23.264;2023-05-11T04:35:17;94567.63;;;9.25;nan
6345;BME280;3205;42.666;23.264;2023-05-11T04:37:43;94582.16;;;9.10;nan
6345;BME280;3205;42.666;23.264;2023-05-11T04:40:10;94584.94;;;9.05;nan
6345;BME280;3205;42.666;23.264;2023-05-11T04:42:37;94567.09;;;9.11;nan
6345;BME280;3205;42.666;23.264;2023-05-11T04:45:03;94583.84;;;9.06;nan
6345;BME280;3205;42.666;23.264;2023-05-11T04:47:30;94595.50;;;9.05;nan
6345;BME280;3205;42.666;23.264;2023-05-11T04:49:56;94592.22;;;9.08;nan
6345;BME280;3205;42.666;23.264;2023-05-11T04:52:22;94589.53;;;9.17;nan
6345;BME280;3205;42.666;23.264;2023-05-11T04:54:48;94583.94;;;8.89;nan
6345;BME280;3205;42.666;23.264;2023-05-11T04:57:15;94585.53;;;9.11;nan
6345;BME280;3205;42.666;23.264;2023-05-11T04:59:41;94592.59;;;8.98;nan
6345;BME280;3205;42.666;23.264;2023-05-11T05:02:07;94591.41;;;9.16;nan
6345;BME280;3205;42.666;23.264;2023-05-11T05:04:33;94598.53;;;9.24;nan
6345;BME280;3205;42.666;23.264;2023-05-11T05:06:59;94588.78;;;9.16;nan
6345;BME280;3205;42.666;23.264;2023-05-11T05:09:25;94597.09;;;9.27;nan
6345;BME280;3205;42.666;23.264;2023-05-11T05:11:52;94608.59;;;9.22;nan
6345;BME280;3205;42.666;23.264;2023-05-11T05:14:18;94608.94;;;9.12;nan
6345;BME280;3205;42.666;23.264;2023-05-11T05:16:44;94595.63;;;9.09;nan
6345;BME280;3205;42.666;23.264;2023-05-11T05:19:10;94598.81;;;9.23;nan
6345;BME280;3205;42.666;23.264;2023-05-11T05:21:37;94613.75;;;9.19;nan
6345;BME280;3205;42.666;23.264;2023-05-11T05:24:05;94616.06;;;9.20;nan
6345;BME280;3205;42.666;23.264;2023-05-11T05:26:31;94601.16;;;9.24;nan
6345;BME280;3205;42.666;23.264;2023-05-11T05:28:58;94594.75;;;9.54;nan
6345;BME280;3205;42.666;23.264;2023-05-11T05:31:24;94620.59;;;9.40;nan
6345;BME280;3205;42.666;23.264;2023-05-11T05:33:50;94603.75;;;9.33;nan
6345;BME280;3205;42.666;23.264;2023-05-11T05:36:16;94601.28;;;9.77;nan
6345;BME280;3205;42.666;23.264;2023-05-11T05:38:42;94617.75;;;9.74;nan
6345;BME280;3205;42.666;23.264;2023-05-11T05:41:08;94615.63;;;9.67;nan
6345;BME280;3205;42.666;23.264;2023-05-11T05:43:34;94600.97;;;9.78;nan
6345;BME280;3205;42.666;23.264;2023-05-11T05:46:01;94605.34;;;9.95;nan
6345;BME280;3205;42.666;23.264;2023-05-11T05:48:27;94611.03;;;10.05;nan
6345;BME280;3205;42.666;23.264;2023-05-11T05:50:53;94623.41;;;10.13;nan
6345;BME280;3205;42.666;23.264;2023-05-11T05:53:19;94620.28;;;10.32;nan
6345;BME280;3205;42.666;23.264;2023-05-11T05:55:46;94625.31;;;10.04;nan
6345;BME280;3205;42.666;23.264;2023-05-11T05:58:12;94637.69;;;9.92;nan
6345;BME280;3205;42.666;23.264;2023-05-11T06:00:39;94628.00;;;9.75;nan
6345;BME280;3205;42.666;23.264;2023-05-11T06:03:06;94620.50;;;10.06;nan
6345;BME280;3205;42.666;23.264;2023-05-11T06:05:32;94634.25;;;10.00;nan
6345;BME280;3205;42.666;23.264;2023-05-11T06:07:58;94629.97;;;10.07;nan
6345;BME280;3205;42.666;23.264;2023-05-11T06:10:24;94646.63;;;9.79;nan
6345;BME280;3205;42.666;23.264;2023-05-11T06:12:50;94643.06;;;9.75;nan
6345;BME280;3205;42.666;23.264;2023-05-11T06:15:16;94632.69;;;9.70;nan
6345;BME280;3205;42.666;23.264;2023-05-11T06:17:42;94638.25;;;9.77;nan
6345;BME280;3205;42.666;23.264;2023-05-11T06:20:09;94641.72;;;9.98;nan
6345;BME280;3205;42.666;23.264;2023-05-11T06:22:37;94649.00;;;9.72;nan
6345;BME280;3205;42.666;23.264;2023-05-11T06:25:04;94647.72;;;10.07;nan
6345;BME280;3205;42.666;23.264;2023-05-11T06:27:31;94645.75;;;10.16;nan
6345;BME280;3205;42.666;23.264;2023-05-11T06:29:57;94646.66;;;10.20;nan
6345;BME280;3205;42.666;23.264;2023-05-11T06:32:23;94660.91;;;10.07;nan
6345;BME280;3205;42.666;23.264;2023-05-11T06:34:49;94641.03;;;10.01;nan
6345;BME280;3205;42.666;23.264;2023-05-11T06:37:16;94660.72;;;10.12;nan
6345;BME280;3205;42.666;23.264;2023-05-11T06:39:45;94649.03;;;9.63;nan
6345;BME280;3205;42.666;23.264;2023-05-11T06:42:11;94652.75;;;9.91;nan
6345;BME280;3205;42.666;23.264;2023-05-11T06:44:37;94650.63;;;9.85;nan
6345;BME280;3205;42.666;23.264;2023-05-11T06:47:04;94656.34;;;9.87;nan
6345;BME280;3205;42.666;23.264;2023-05-11T06:49:30;94649.94;;;9.96;nan
6345;BME280;3205;42.666;23.264;2023-05-11T06:51:56;94649.34;;;9.91;nan
6345;BME280;3205;42.666;23.264;2023-05-11T06:54:23;94647.72;;;10.07;nan
6345;BME280;3205;42.666;23.264;2023-05-11T06:56:49;94648.97;;;10.21;nan
6345;BME280;3205;42.666;23.264;2023-05-11T06:59:15;94654.19;;;10.30;nan
6345;BME280;3205;42.666;23.264;2023-05-11T07:01:41;94650.50;;;10.42;nan
6345;BME280;3205;42.666;23.264;2023-05-11T07:04:09;94658.13;;;10.44;nan
6345;BME280;3205;42.666;23.264;2023-05-11T07:06:36;94656.56;;;10.75;nan
6345;BME280;3205;42.666;23.264;2023-05-11T07:09:02;94668.44;;;11.13;nan
6345;BME280;3205;42.666;23.264;2023-05-11T07:11:29;94665.63;;;10.74;nan
6345;BME280;3205;42.666;23.264;2023-05-11T07:13:55;94669.63;;;10.92;nan
6345;BME280;3205;42.666;23.264;2023-05-11T07:16:21;94670.09;;;11.18;nan
6345;BME280;3205;42.666;23.264;2023-05-11T07:18:48;94681.44;;;11.63;nan
6345;BME280;3205;42.666;23.264;2023-05-11T07:21:14;94677.09;;;10.90;nan
6345;BME280;3205;42.666;23.264;2023-05-11T07:23:42;94669.47;;;10.77;nan
6345;BME280;3205;42.666;23.264;2023-05-11T07:26:09;94667.81;;;11.40;nan
6345;BME280;3205;42.666;23.264;2023-05-11T07:28:36;94673.50;;;11.63;nan
6345;BME280;3205;42.666;23.264;2023-05-11T07:31:02;94685.06;;;11.58;nan
6345;BME280;3205;42.666;23.264;2023-05-11T07:33:29;94682.13;;;11.15;nan
6345;BME280;3205;42.666;23.264;2023-05-11T07:35:55;94671.00;;;11.22;nan
6345;BME280;3205;42.666;23.264;2023-05-11T07:38:21;94691.97;;;11.39;nan
6345;BME280;3205;42.666;23.264;2023-05-11T07:40:47;94685.59;;;11.40;nan
6345;BME280;3205;42.666;23.264;2023-05-11T07:43:13;94685.97;;;11.86;nan
6345;BME280;3205;42.666;23.264;2023-05-11T07:45:40;94696.91;;;12.36;nan
6345;BME280;3205;42.666;23.264;2023-05-11T07:48:06;94695.41;;;12.11;nan
6345;BME280;3205;42.666;23.264;2023-05-11T07:50:32;94701.50;;;11.99;nan
6345;BME280;3205;42.666;23.264;2023-05-11T07:52:58;94701.72;;;11.59;nan
6345;BME280;3205;42.666;23.264;2023-05-11T07:55:24;94710.34;;;11.56;nan
6345;BME280;3205;42.666;23.264;2023-05-11T07:57:50;94697.03;;;11.32;nan
6345;BME280;3205;42.666;23.264;2023-05-11T08:00:17;94692.63;;;11.36;nan
6345;BME280;3205;42.666;23.264;2023-05-11T08:02:44;94698.75;;;11.60;nan
6345;BME280;3205;42.666;23.264;2023-05-11T08:05:10;94694.66;;;11.86;nan
6345;BME280;3205;42.666;23.264;2023-05-11T08:07:42;94711.25;;;11.27;nan
6345;BME280;3205;42.666;23.264;2023-05-11T08:10:09;94719.88;;;11.36;nan
6345;BME280;3205;42.666;23.264;2023-05-11T08:12:35;94719.16;;;11.60;nan
6345;BME280;3205;42.666;23.264;2023-05-11T08:15:02;94723.94;;;11.34;nan
6345;BME280;3205;42.666;23.264;2023-05-11T08:17:29;94712.00;;;11.84;nan
6345;BME280;3205;42.666;23.264;2023-05-11T08:19:56;94707.31;;;12.17;nan
6345;BME280;3205;42.666;23.264;2023-05-11T08:22:22;94698.94;;;12.27;nan
6345;BME280;3205;42.666;23.264;2023-05-11T08:24:48;94723.66;;;12.19;nan
6345;BME280;3205;42.666;23.264;2023-05-11T08:27:15;94711.66;;;12.09;nan
6345;BME280;3205;42.666;23.264;2023-05-11T08:29:41;94712.19;;;12.27;nan
6345;BME280;3205;42.666;23.264;2023-05-11T08:32:07;94716.59;;;12.11;nan
6345;BME280;3205;42.666;23.264;2023-05-11T08:34:33;94710.16;;;12.48;nan
6345;BME280;3205;42.666;23.264;2023-05-11T08:37:00;94714.81;;;12.66;nan
6345;BME280;3205;42.666;23.264;2023-05-11T08:39:27;94707.22;;;12.92;nan
6345;BME280;3205;42.666;23.264;2023-05-11T08:41:55;94705.81;;;13.52;nan
6345;BME280;3205;42.666;23.264;2023-05-11T08:44:22;94719.16;;;13.87;nan
6345;BME280;3205;42.666;23.264;2023-05-11T08:46:51;94705.41;;;14.31;nan
6345;BME280;3205;42.666;23.264;2023-05-11T08:49:18;94716.56;;;13.29;nan
6345;BME280;3205;42.666;23.264;2023-05-11T08:51:45;94720.94;;;12.94;nan
6345;BME280;3205;42.666;23.264;2023-05-11T08:54:12;94708.84;;;13.08;nan
6345;BME280;3205;42.666;23.264;2023-05-11T08:56:40;94705.84;;;13.25;nan
6345;BME280;3205;42.666;23.264;2023-05-11T08:59:08;94712.34;;;13.28;nan
6345;BME280;3205;42.666;23.264;2023-05-11T09:01:35;94706.47;;;13.49;nan
6345;BME280;3205;42.666;23.264;2023-05-11T09:04:03;94699.63;;;13.79;nan
6345;BME280;3205;42.666;23.264;2023-05-11T09:06:29;94708.13;;;13.54;nan
6345;BME280;3205;42.666;23.264;2023-05-11T09:08:56;94717.28;;;13.56;nan
6345;BME280;3205;42.666;23.264;2023-05-11T09:11:23;94696.41;;;13.12;nan
6345;BME280;3205;42.666;23.264;2023-05-11T09:13:50;94698.81;;;12.62;nan
6345;BME280;3205;42.666;23.264;2023-05-11T09:16:16;94687.84;;;12.37;nan
6345;BME280;3205;42.666;23.264;2023-05-11T09:18:46;94704.75;;;12.32;nan
6345;BME280;3205;42.666;23.264;2023-05-11T09:21:12;94703.16;;;12.82;nan
6345;BME280;3205;42.666;23.264;2023-05-11T09:23:39;94711.31;;;12.62;nan
6345;BME280;3205;42.666;23.264;2023-05-11T09:26:12;94713.50;;;12.33;nan
6345;BME280;3205;42.666;23.264;2023-05-11T09:28:47;94710.44;;;11.71;nan
6345;BME280;3205;42.666;23.264;2023-05-11T09:31:33;94697.41;;;12.53;nan
6345;BME280;3205;42.666;23.264;2023-05-11T09:34:11;94701.88;;;13.04;nan
6345;BME280;3205;42.666;23.264;2023-05-11T09:36:38;94703.53;;;13.24;nan
6345;BME280;3205;42.666;23.264;2023-05-11T09:39:04;94719.38;;;12.93;nan
6345;BME280;3205;42.666;23.264;2023-05-11T09:41:30;94696.25;;;13.21;nan
6345;BME280;3205;42.666;23.264;2023-05-11T09:44:06;94697.22;;;13.43;nan
6345;BME280;3205;42.666;23.264;2023-05-11T09:46:36;94702.72;;;13.50;nan
6345;BME280;3205;42.666;23.264;2023-05-11T09:49:03;94691.28;;;13.96;nan
6345;BME280;3205;42.666;23.264;2023-05-11T09:51:30;94691.72;;;13.98;nan
6345;BME280;3205;42.666;23.264;2023-05-11T09:53:57;94690.53;;;13.80;nan
6345;BME280;3205;42.666;23.264;2023-05-11T09:56:42;94686.03;;;14.15;nan
6345;BME280;3205;42.666;23.264;2023-05-11T09:59:09;94674.66;;;13.84;nan
6345;BME280;3205;42.666;23.264;2023-05-11T10:01:37;94679.31;;;14.21;nan
6345;BME280;3205;42.666;23.264;2023-05-11T10:04:03;94676.41;;;14.26;nan
6345;BME280;3205;42.666;23.264;2023-05-11T10:06:42;94684.38;;;13.45;nan
6345;BME280;3205;42.666;23.264;2023-05-11T10:09:09;94676.66;;;13.25;nan
6345;BME280;3205;42.666;23.264;2023-05-11T10:11:36;94663.41;;;13.56;nan
6345;BME280;3205;42.666;23.264;2023-05-11T10:14:04;94666.06;;;13.56;nan
6345;BME280;3205;42.666;23.264;2023-05-11T10:16:33;94669.28;;;13.65;nan
6345;BME280;3205;42.666;23.264;2023-05-11T10:19:00;94651.97;;;13.71;nan
6345;BME280;3205;42.666;23.264;2023-05-11T10:21:26;94658.50;;;14.07;nan
6345;BME280;3205;42.666;23.264;2023-05-11T10:23:55;94654.19;;;14.53;nan
6345;BME280;3205;42.666;23.264;2023-05-11T10:26:22;94659.44;;;14.15;nan
6345;BME280;3205;42.666;23.264;2023-05-11T10:28:49;94655.06;;;13.27;nan
6345;BME280;3205;42.666;23.264;2023-05-11T10:31:16;94665.50;;;13.20;nan
6345;BME280;3205;42.666;23.264;2023-05-11T10:33:49;94650.19;;;13.29;nan
6345;BME280;3205;42.666;23.264;2023-05-11T10:36:16;94657.63;;;13.08;nan
6345;BME280;3205;42.666;23.264;2023-05-11T10:38:42;94652.06;;;13.13;nan
6345;BME280;3205;42.666;23.264;2023-05-11T10:41:18;94654.56;;;13.21;nan
6345;BME280;3205;42.666;23.264;2023-05-11T10:44:09;94647.03;;;13.38;nan
6345;BME280;3205;42.666;23.264;2023-05-11T10:46:55;94643.84;;;13.48;nan
6345;BME280;3205;42.666;23.264;2023-05-11T10:49:39;94643.06;;;13.32;nan
6345;BME280;3205;42.666;23.264;2023-05-11T10:52:20;94652.38;;;13.88;nan
6345;BME280;3205;42.666;23.264;2023-05-11T10:55:04;94647.63;;;13.47;nan
6345;BME280;3205;42.666;23.264;2023-05-11T10:57:37;94653.09;;;13.24;nan
6345;BME280;3205;42.666;23.264;2023-05-11T11:00:34;94666.56;;;13.31;nan
6345;BME280;3205;42.666;23.264;2023-05-11T11:03:13;94655.34;;;14.02;nan
6345;BME280;3205;42.666;23.264;2023-05-11T11:05:41;94646.09;;;14.11;nan
6345;BME280;3205;42.666;23.264;2023-05-11T11:08:08;94636.69;;;13.83;nan
6345;BME280;3205;42.666;23.264;2023-05-11T11:10:36;94643.00;;;13.60;nan
6345;BME280;3205;42.666;23.264;2023-05-11T11:13:04;94647.53;;;13.75;nan
6345;BME280;3205;42.666;23.264;2023-05-11T11:18:31;94651.72;;;12.87;nan
6345;BME280;3205;42.666;23.264;2023-05-11T11:20:59;94658.06;;;13.10;nan
6345;BME280;3205;42.666;23.264;2023-05-11T11:23:44;94648.72;;;13.00;nan
6345;BME280;3205;42.666;23.264;2023-05-11T11:26:14;94646.91;;;13.04;nan
6345;BME280;3205;42.666;23.264;2023-05-11T11:29:10;94647.44;;;12.82;nan
6345;BME280;3205;42.666;23.264;2023-05-11T11:31:37;94642.31;;;13.17;nan
6345;BME280;3205;42.666;23.264;2023-05-11T11:34:31;94645.72;;;13.02;nan
6345;BME280;3205;42.666;23.264;2023-05-11T11:37:05;94624.31;;;13.56;nan
6345;BME280;3205;42.666;23.264;2023-05-11T11:39:52;94618.69;;;13.77;nan
6345;BME280;3205;42.666;23.264;2023-05-11T11:42:42;94636.47;;;13.57;nan
6345;BME280;3205;42.666;23.264;2023-05-11T11:45:31;94633.09;;;13.91;nan
6345;BME280;3205;42.666;23.264;2023-05-11T11:48:11;94638.09;;;14.27;nan
6345;BME280;3205;42.666;23.264;2023-05-11T11:50:39;94629.00;;;13.78;nan
6345;BME280;3205;42.666;23.264;2023-05-11T11:53:10;94627.31;;;13.55;nan
6345;BME280;3205;42.666;23.264;2023-05-11T11:55:47;94618.34;;;13.94;nan
6345;BME280;3205;42.666;23.264;2023-05-11T12:01:14;94631.19;;;13.92;nan
6345;BME280;3205;42.666;23.264;2023-05-11T12:03:41;94624.00;;;14.45;nan
6345;BME280;3205;42.666;23.264;2023-05-11T12:06:09;94633.38;;;13.09;nan
6345;BME280;3205;42.666;23.264;2023-05-11T12:08:37;94622.72;;;13.36;nan
6345;BME280;3205;42.666;23.264;2023-05-11T12:11:05;94621.06;;;13.47;nan
6345;BME280;3205;42.666;23.264;2023-05-11T12:13:31;94619.09;;;13.94;nan
6345;BME280;3205;42.666;23.264;2023-05-11T12:16:07;94615.00;;;13.81;nan
6345;BME280;3205;42.666;23.264;2023-05-11T12:18:34;94617.16;;;13.91;nan
6345;BME280;3205;42.666;23.264;2023-05-11T12:21:01;94614.94;;;13.78;nan
6345;BME280;3205;42.666;23.264;2023-05-11T12:23:28;94610.41;;;14.12;nan
6345;BME280;3205;42.666;23.264;2023-05-11T12:26:00;94604.19;;;14.24;nan
6345;BME280;3205;42.666;23.264;2023-05-11T12:28:27;94605.81;;;13.94;nan
6345;BME280;3205;42.666;23.264;2023-05-11T12:30:54;94603.75;;;13.69;nan
6345;BME280;3205;42.666;23.264;2023-05-11T12:33:21;94599.00;;;13.78;nan
6345;BME280;3205;42.666;23.264;2023-05-11T12:35:51;94598.66;;;13.79;nan
6345;BME280;3205;42.666;23.264;2023-05-11T12:38:17;94596.69;;;13.76;nan
6345;BME280;3205;42.666;23.264;2023-05-11T12:40:46;94588.00;;;13.45;nan
6345;BME280;3205;42.666;23.264;2023-05-11T12:43:16;94583.75;;;13.75;nan
6345;BME280;3205;42.666;23.264;2023-05-11T12:45:43;94595.31;;;14.01;nan
6345;BME280;3205;42.666;23.264;2023-05-11T12:48:10;94582.94;;;13.90;nan
6345;BME280;3205;42.666;23.264;2023-05-11T12:50:39;94598.00;;;13.67;nan
6345;BME280;3205;42.666;23.264;2023-05-11T12:53:11;94583.13;;;13.47;nan
6345;BME280;3205;42.666;23.264;2023-05-11T12:55:38;94587.13;;;13.56;nan
6345;BME280;3205;42.666;23.264;2023-05-11T12:58:09;94593.59;;;13.40;nan
6345;BME280;3205;42.666;23.264;2023-05-11T13:00:37;94576.06;;;13.05;nan
6345;BME280;3205;42.666;23.264;2023-05-11T13:03:20;94587.75;;;13.19;nan
6345;BME280;3205;42.666;23.264;2023-05-11T13:05:47;94577.66;;;12.94;nan
6345;BME280;3205;42.666;23.264;2023-05-11T13:08:13;94564.66;;;12.89;nan
6345;BME280;3205;42.666;23.264;2023-05-11T13:10:40;94568.19;;;13.08;nan
6345;BME280;3205;42.666;23.264;2023-05-11T13:13:07;94560.81;;;13.02;nan
6345;BME280;3205;42.666;23.264;2023-05-11T13:15:33;94558.06;;;13.14;nan
6345;BME280;3205;42.666;23.264;2023-05-11T13:18:01;94553.50;;;13.30;nan
6345;BME280;3205;42.666;23.264;2023-05-11T13:20:29;94560.63;;;13.10;nan
6345;BME280;3205;42.666;23.264;2023-05-11T13:23:03;94565.09;;;13.06;nan
6345;BME280;3205;42.666;23.264;2023-05-11T13:25:31;94561.38;;;12.95;nan
6345;BME280;3205;42.666;23.264;2023-05-11T13:27:57;94560.63;;;13.26;nan
6345;BME280;3205;42.666;23.264;2023-05-11T13:30:23;94542.91;;;13.14;nan
6345;BME280;3205;42.666;23.264;2023-05-11T13:32:49;94555.75;;;13.12;nan
6345;BME280;3205;42.666;23.264;2023-05-11T13:35:16;94553.38;;;12.64;nan
6345;BME280;3205;42.666;23.264;2023-05-11T13:37:42;94555.13;;;12.72;nan
6345;BME280;3205;42.666;23.264;2023-05-11T13:40:09;94562.88;;;12.50;nan
6345;BME280;3205;42.666;23.264;2023-05-11T13:42:36;94542.75;;;12.49;nan
6345;BME280;3205;42.666;23.264;2023-05-11T13:45:03;94560.13;;;12.47;nan
6345;BME280;3205;42.666;23.264;2023-05-11T13:47:29;94557.31;;;12.55;nan
6345;BME280;3205;42.666;23.264;2023-05-11T13:49:55;94544.72;;;12.52;nan